首页
METAR-TAF:

METAR-TAF

机场 :

蒂米什瓦拉, 罗马尼亚

纬度: 45-46N, 经度: 021-15E, 海拔: 86米

当前天气观测

该预报发布于10分钟前的04:30 UTC
风速7节,风向东南
温度 5°C
湿度 87%
气压 1000 hPa
能见度10公里或以上
1500米以下无云,无积雨云

METAR: LRTR 260430Z 13007KT CAVOK 05/03 Q1000

时间: 06:40 (04:40 UTC)

预报

该预报发布于5小时和40分钟前的23:00 UTC
预报有效从26日的 00点(UTC)到 26日的 24点(UTC)
风速4节,风向多变
能见度10公里或以上
1500米以下无云,无积雨云
成为
从 26日的 07点(UTC)到 26日的 09点(UTC)
风速15节,风向,有时为25节阵风
短暂存在
从 26日的 10点(UTC)到 26日的 15点(UTC)
能見度: 5000
多云层高于1000英尺
散云层高于3500英尺, 积雨云.
多云层高于4500英尺
小阵雨
几率 40%
从 26日的 11点(UTC)到 26日的 15点(UTC)
风速25节,风向南转西南,有时为35节阵风
能見度: 3000
雷暴, 雨
成为
从 26日的 15点(UTC)到 26日的 17点(UTC)
风速15节,风向北转西北
能見度: 5000
多云层高于1500英尺
阴天层高于3000英尺

TAF: LRTR 252300Z 2600/2624 VRB04KT CAVOK BECMG 2607/2609 19015G25KT TEMPO 2610/2615 5000 -SHRA BKN010 SCT035CB BKN045 PROB40 2611/2615 21025G35KT 3000 TSRA BECMG 2615/2617 33015KT 5000 RA BKN015 OVC030

超过4000个机场的气象观测和天气预报(METAR&TAF报告)。

可查询的气象台以黄色和红色小点在地图上表示。

将鼠标移到小点上方,可查看气象台名称。

然后点击查看天气观测和预报。

如需切换地图:点击带黑十字的绿色按钮放大地图;点击带横线的绿色按钮缩小地图;或者点击绿色箭头查看邻近地区的地图。


METAR-TAF: